createdAt,value
2018-12-30T00:00:21.204Z,3.00
2018-12-30T00:02:50.283Z,3.10
2018-12-30T00:05:19.448Z,2.90
2018-12-30T00:07:48.201Z,2.90
2018-12-30T00:10:17.379Z,2.93
2018-12-30T00:12:46.188Z,2.97
2018-12-30T00:15:15.389Z,2.60
2018-12-30T00:17:44.152Z,2.87
2018-12-30T00:20:13.067Z,2.33
2018-12-30T00:22:41.904Z,2.60
2018-12-30T00:25:10.817Z,2.50
2018-12-30T00:27:39.702Z,2.63
2018-12-30T00:30:09.633Z,2.90
2018-12-30T00:32:38.395Z,2.77
2018-12-30T00:35:07.230Z,2.43
2018-12-30T00:37:36.059Z,2.80
2018-12-30T00:40:04.973Z,2.50
2018-12-30T00:42:33.720Z,2.57
2018-12-30T00:45:02.548Z,2.67
2018-12-30T00:47:31.451Z,2.60
2018-12-30T00:50:00.290Z,2.50
2018-12-30T00:52:29.054Z,2.70
2018-12-30T00:54:57.804Z,2.80
2018-12-30T00:57:26.952Z,2.63
2018-12-30T00:59:55.698Z,2.40
2018-12-30T01:02:24.483Z,2.50
2018-12-30T01:04:53.307Z,2.43
2018-12-30T01:07:22.147Z,2.80
2018-12-30T01:09:50.937Z,2.53
2018-12-30T01:12:19.692Z,2.23
2018-12-30T01:14:48.467Z,2.60
2018-12-30T01:17:17.317Z,2.50
2018-12-30T01:19:46.151Z,2.67
2018-12-30T01:22:14.936Z,2.30
2018-12-30T01:24:43.941Z,2.57
2018-12-30T01:27:12.705Z,2.47
2018-12-30T01:29:41.470Z,2.30
2018-12-30T01:32:10.307Z,2.33
2018-12-30T01:34:39.214Z,2.53
2018-12-30T01:37:08.039Z,2.40
2018-12-30T01:39:36.799Z,2.80
2018-12-30T01:42:05.605Z,2.50
2018-12-30T01:44:34.363Z,2.37
2018-12-30T01:47:03.111Z,2.30
2018-12-30T01:49:31.996Z,2.43
2018-12-30T01:52:01.013Z,2.30
2018-12-30T01:54:29.843Z,2.57
2018-12-30T01:56:58.675Z,2.73
2018-12-30T01:59:27.444Z,2.60
2018-12-30T02:01:57.124Z,2.50
2018-12-30T02:04:26.171Z,2.53
2018-12-30T02:06:55.014Z,2.63
2018-12-30T02:09:23.912Z,2.50
2018-12-30T02:11:52.642Z,2.30
2018-12-30T02:14:21.414Z,2.80
2018-12-30T02:16:50.629Z,2.40
2018-12-30T02:19:19.375Z,2.70
2018-12-30T02:21:48.124Z,2.90
2018-12-30T02:24:16.939Z,2.60
2018-12-30T02:26:45.695Z,2.50
2018-12-30T02:29:14.441Z,2.63
2018-12-30T02:31:43.206Z,2.57
2018-12-30T02:34:12.056Z,2.57
2018-12-30T02:36:40.805Z,2.53
2018-12-30T02:39:09.540Z,2.60
2018-12-30T02:41:38.305Z,2.30
2018-12-30T02:44:07.203Z,2.80
2018-12-30T02:46:35.951Z,2.53
2018-12-30T02:49:04.803Z,2.60
2018-12-30T02:51:33.563Z,2.50
2018-12-30T02:54:02.294Z,2.47
2018-12-30T02:56:31.043Z,2.50
2018-12-30T02:58:59.783Z,2.70
2018-12-30T03:01:28.542Z,2.80
2018-12-30T03:03:57.278Z,2.60
2018-12-30T03:06:26.423Z,2.70
2018-12-30T03:08:55.207Z,2.80
2018-12-30T03:11:24.055Z,2.77
2018-12-30T03:13:52.801Z,2.70
2018-12-30T03:16:21.562Z,2.60
2018-12-30T03:18:50.615Z,2.53
2018-12-30T03:21:19.458Z,2.70
2018-12-30T03:23:48.281Z,2.87
2018-12-30T03:26:17.024Z,2.60
2018-12-30T03:28:45.844Z,2.60
2018-12-30T03:31:14.624Z,2.70
2018-12-30T03:33:43.357Z,2.70
2018-12-30T03:36:12.114Z,2.73
2018-12-30T03:38:40.858Z,2.50
2018-12-30T03:41:09.613Z,2.90
2018-12-30T03:43:38.363Z,2.67
2018-12-30T03:46:07.118Z,2.70
2018-12-30T03:48:35.948Z,2.50
2018-12-30T03:51:04.686Z,2.40
2018-12-30T03:53:33.439Z,2.80
2018-12-30T03:56:02.275Z,3.10
2018-12-30T03:58:31.011Z,2.53
2018-12-30T04:00:59.774Z,2.60
2018-12-30T04:03:28.594Z,2.60
2018-12-30T04:05:57.382Z,2.83
2018-12-30T04:08:26.196Z,2.73
2018-12-30T04:10:54.946Z,2.90
2018-12-30T04:13:23.773Z,2.60
2018-12-30T04:15:52.530Z,2.80
2018-12-30T04:18:21.728Z,2.40
2018-12-30T04:20:50.517Z,2.60
2018-12-30T04:23:19.272Z,2.73
2018-12-30T04:25:48.026Z,2.80
2018-12-30T04:28:16.768Z,2.97
2018-12-30T04:30:45.606Z,2.60
2018-12-30T04:33:14.346Z,2.97
2018-12-30T04:35:43.107Z,2.50
2018-12-30T04:38:11.842Z,2.70
2018-12-30T04:40:40.584Z,2.70
2018-12-30T04:43:09.341Z,2.77
2018-12-30T04:45:38.071Z,2.43
2018-12-30T04:48:06.859Z,2.40
2018-12-30T04:50:35.601Z,2.80
2018-12-30T04:53:04.356Z,2.87
2018-12-30T04:55:33.110Z,2.80
2018-12-30T04:58:01.859Z,2.50
2018-12-30T05:00:30.615Z,2.47
2018-12-30T05:02:59.443Z,2.70
2018-12-30T05:05:28.233Z,2.30
2018-12-30T05:07:56.977Z,2.90
2018-12-30T05:10:25.720Z,2.60
2018-12-30T05:12:54.505Z,2.70
2018-12-30T05:15:23.306Z,2.97
2018-12-30T05:17:52.074Z,2.83
2018-12-30T05:20:20.821Z,2.90
2018-12-30T05:22:49.583Z,2.83
2018-12-30T05:25:18.333Z,2.37
2018-12-30T05:27:47.111Z,2.60
2018-12-30T05:30:15.852Z,2.57
2018-12-30T05:32:44.600Z,2.70
2018-12-30T05:35:13.341Z,2.63
2018-12-30T05:37:42.087Z,2.87
2018-12-30T05:40:10.829Z,2.50
2018-12-30T05:42:39.577Z,2.60
2018-12-30T05:45:08.315Z,2.50
2018-12-30T05:47:37.051Z,2.40
2018-12-30T05:50:06.584Z,2.50
2018-12-30T05:52:41.858Z,2.53
2018-12-30T05:55:05.909Z,2.83
2018-12-30T05:57:34.650Z,2.73
2018-12-30T06:00:03.577Z,2.40
2018-12-30T06:02:32.333Z,2.77
2018-12-30T06:05:01.071Z,2.77
2018-12-30T06:07:29.808Z,2.43
2018-12-30T06:09:58.566Z,2.70
2018-12-30T06:12:27.298Z,2.50
2018-12-30T06:14:56.082Z,2.80
2018-12-30T06:17:24.906Z,3.10
2018-12-30T06:19:53.864Z,2.60
2018-12-30T06:22:22.624Z,2.40
2018-12-30T06:24:51.376Z,2.40
2018-12-30T06:27:20.118Z,2.40
2018-12-30T06:29:48.854Z,2.30
2018-12-30T06:32:17.635Z,1.90
2018-12-30T06:34:46.368Z,2.93
2018-12-30T06:37:15.112Z,2.40
2018-12-30T06:39:43.892Z,2.60
2018-12-30T06:42:12.634Z,2.47
2018-12-30T06:44:41.377Z,2.93
2018-12-30T06:47:10.198Z,2.70
2018-12-30T06:49:38.972Z,2.63
2018-12-30T06:52:07.796Z,2.50
2018-12-30T06:54:36.566Z,2.80
2018-12-30T06:57:05.323Z,2.77
2018-12-30T06:59:34.074Z,2.63
2018-12-30T07:02:02.816Z,2.70
2018-12-30T07:04:31.638Z,2.60
2018-12-30T07:07:00.491Z,2.67
2018-12-30T07:09:29.333Z,2.70
2018-12-30T07:11:58.097Z,2.50
2018-12-30T07:14:26.834Z,2.50
2018-12-30T07:16:56.009Z,2.93
2018-12-30T07:19:24.838Z,2.77
2018-12-30T07:21:53.584Z,2.67
2018-12-30T07:24:22.482Z,2.67
2018-12-30T07:26:51.824Z,2.60
2018-12-30T07:29:20.630Z,2.50
2018-12-30T07:31:49.506Z,2.50
2018-12-30T07:34:18.476Z,2.63
2018-12-30T07:36:47.322Z,2.57
2018-12-30T07:39:16.080Z,2.90
2018-12-30T07:41:44.933Z,2.63
2018-12-30T07:44:13.817Z,2.60
2018-12-30T07:46:42.631Z,2.57
2018-12-30T07:49:11.499Z,2.73
2018-12-30T07:51:40.397Z,2.87
2018-12-30T07:54:09.235Z,2.73
2018-12-30T07:56:38.167Z,2.50
2018-12-30T07:59:06.972Z,2.60
2018-12-30T08:01:35.811Z,2.40
2018-12-30T08:04:04.733Z,2.47
2018-12-30T08:06:33.684Z,2.30
2018-12-30T08:09:02.860Z,2.90
2018-12-30T08:11:31.747Z,2.50
2018-12-30T08:14:00.639Z,2.60
2018-12-30T08:16:29.433Z,2.60
2018-12-30T08:18:58.219Z,2.80
2018-12-30T08:21:27.111Z,2.37
2018-12-30T08:23:55.893Z,2.63
2018-12-30T08:26:24.632Z,2.87
2018-12-30T08:28:53.373Z,2.60
2018-12-30T08:31:22.235Z,2.30
2018-12-30T08:33:50.983Z,2.60
2018-12-30T08:36:19.751Z,2.50
2018-12-30T08:38:48.508Z,2.53
2018-12-30T08:41:17.275Z,2.50
2018-12-30T08:43:46.021Z,2.63
2018-12-30T08:46:14.774Z,2.50
2018-12-30T08:48:43.520Z,2.70
2018-12-30T08:51:12.310Z,2.70
2018-12-30T08:53:41.055Z,2.33
2018-12-30T08:56:09.890Z,2.57
2018-12-30T08:58:38.647Z,2.50
2018-12-30T09:01:07.543Z,2.60
2018-12-30T09:03:36.292Z,2.30
2018-12-30T09:06:05.049Z,2.47
2018-12-30T09:08:33.839Z,2.57
2018-12-30T09:11:02.602Z,2.40
2018-12-30T09:13:31.382Z,2.30
2018-12-30T09:16:00.140Z,2.67
2018-12-30T09:18:28.943Z,2.50
2018-12-30T09:20:57.698Z,2.60
2018-12-30T09:23:26.493Z,2.67
2018-12-30T09:25:55.269Z,2.57
2018-12-30T09:28:24.023Z,2.70
2018-12-30T09:30:52.782Z,2.53
2018-12-30T09:33:21.554Z,2.50
2018-12-30T09:35:50.289Z,2.13
2018-12-30T09:38:19.020Z,2.43
2018-12-30T09:40:47.840Z,2.30
2018-12-30T09:43:16.603Z,2.47
2018-12-30T09:45:45.382Z,2.53
2018-12-30T09:48:14.155Z,2.60
2018-12-30T09:50:42.916Z,2.53
2018-12-30T09:53:11.664Z,2.60
2018-12-30T09:55:40.422Z,2.43
2018-12-30T09:58:09.240Z,2.60
2018-12-30T10:00:38.034Z,2.70
2018-12-30T10:03:06.871Z,2.40
2018-12-30T10:05:35.680Z,2.33
2018-12-30T10:08:04.441Z,2.43
2018-12-30T10:10:33.212Z,2.77
2018-12-30T10:13:01.991Z,2.50
2018-12-30T10:15:30.955Z,2.47
2018-12-30T10:17:59.801Z,2.50
2018-12-30T10:20:28.574Z,2.43
2018-12-30T10:22:58.912Z,3.00
2018-12-30T10:25:27.863Z,2.70
2018-12-30T10:27:56.687Z,2.50
2018-12-30T10:30:26.690Z,2.37
2018-12-30T10:32:55.509Z,2.40
2018-12-30T10:35:24.282Z,2.50
2018-12-30T10:37:53.085Z,2.60
2018-12-30T10:40:21.989Z,2.50
2018-12-30T10:42:50.807Z,2.53
2018-12-30T10:45:19.558Z,2.40
2018-12-30T10:47:48.426Z,2.60
2018-12-30T10:50:17.183Z,2.60
2018-12-30T10:52:46.116Z,2.80
2018-12-30T10:55:14.863Z,2.60
2018-12-30T10:57:43.697Z,2.40
2018-12-30T11:00:12.623Z,2.90
2018-12-30T11:02:41.394Z,2.93
2018-12-30T11:05:10.174Z,3.27
2018-12-30T11:07:38.993Z,3.50
2018-12-30T11:10:07.767Z,3.30
2018-12-30T11:12:36.498Z,3.33
2018-12-30T11:15:06.199Z,3.40
2018-12-30T11:17:34.963Z,3.70
2018-12-30T11:20:03.805Z,3.60
2018-12-30T11:22:32.670Z,3.60
2018-12-30T11:25:01.506Z,4.17
2018-12-30T11:27:30.291Z,4.60
2018-12-30T11:29:59.049Z,4.37
2018-12-30T11:32:27.806Z,4.10
2018-12-30T11:34:56.558Z,4.47
2018-12-30T11:37:25.404Z,4.17
2018-12-30T11:39:54.189Z,4.60
2018-12-30T11:42:23.040Z,4.27
2018-12-30T11:44:51.866Z,4.30
2018-12-30T11:47:20.600Z,4.77
2018-12-30T11:49:49.341Z,4.33
2018-12-30T11:52:18.113Z,4.30
2018-12-30T11:54:46.943Z,4.17
2018-12-30T11:57:15.716Z,4.50
2018-12-30T11:59:44.462Z,4.57
2018-12-30T12:02:13.299Z,4.10
2018-12-30T12:04:42.069Z,4.27
2018-12-30T12:07:10.824Z,4.87
2018-12-30T12:09:39.601Z,4.83
2018-12-30T12:12:08.364Z,5.00
2018-12-30T12:14:37.211Z,4.83
2018-12-30T12:17:05.984Z,5.00
2018-12-30T12:19:34.797Z,4.53
2018-12-30T12:22:03.560Z,4.47
2018-12-30T12:24:32.319Z,4.83
2018-12-30T12:27:01.084Z,4.47
2018-12-30T12:29:29.840Z,4.97
2018-12-30T12:31:58.633Z,5.17
2018-12-30T12:34:27.399Z,4.80
2018-12-30T12:36:56.276Z,5.10
2018-12-30T12:39:25.097Z,5.10
2018-12-30T12:41:54.227Z,5.20
2018-12-30T12:44:22.998Z,4.87
2018-12-30T12:46:51.791Z,5.00
2018-12-30T12:49:20.589Z,4.97
2018-12-30T12:51:49.342Z,4.90
2018-12-30T12:54:18.127Z,4.63
2018-12-30T12:56:46.889Z,4.97
2018-12-30T12:59:15.763Z,5.20
2018-12-30T13:01:44.593Z,4.87
2018-12-30T13:04:13.446Z,4.87
2018-12-30T13:06:42.245Z,4.27
2018-12-30T13:09:11.154Z,4.53
2018-12-30T13:11:40.086Z,4.57
2018-12-30T13:14:09.161Z,4.90
2018-12-30T13:16:37.947Z,4.80
2018-12-30T13:19:06.715Z,4.43
2018-12-30T13:21:35.575Z,4.70
2018-12-30T13:24:04.438Z,5.13
2018-12-30T13:26:33.286Z,4.63
2018-12-30T13:29:02.223Z,5.03
2018-12-30T13:31:31.148Z,5.00
2018-12-30T13:33:59.917Z,4.50
2018-12-30T13:36:28.685Z,4.73
2018-12-30T13:38:57.421Z,4.67
2018-12-30T13:41:26.219Z,4.30
2018-12-30T13:43:55.029Z,4.87
2018-12-30T13:46:23.888Z,4.73
2018-12-30T13:48:52.694Z,4.37
2018-12-30T13:51:21.639Z,4.70
2018-12-30T13:53:50.635Z,4.20
2018-12-30T13:56:19.405Z,4.47
2018-12-30T13:58:48.281Z,4.40
2018-12-30T14:01:17.055Z,4.50
2018-12-30T14:03:47.213Z,4.27
2018-12-30T14:06:16.003Z,4.37
2018-12-30T14:08:44.837Z,4.50
2018-12-30T14:11:13.631Z,4.50
2018-12-30T14:13:42.496Z,4.47
2018-12-30T14:16:11.373Z,4.27
2018-12-30T14:18:40.239Z,4.37
2018-12-30T14:21:09.052Z,4.27
2018-12-30T14:23:37.820Z,4.33
2018-12-30T14:26:06.661Z,3.70
2018-12-30T14:28:35.435Z,4.60
2018-12-30T14:31:04.313Z,4.10
2018-12-30T14:33:34.001Z,4.27
2018-12-30T14:36:02.881Z,3.87
2018-12-30T14:38:31.799Z,3.87
2018-12-30T14:41:00.677Z,4.07
2018-12-30T14:43:29.681Z,4.23
2018-12-30T14:45:58.551Z,3.97
2018-12-30T14:48:29.428Z,4.03
2018-12-30T14:50:58.331Z,4.07
2018-12-30T14:53:27.209Z,4.37
2018-12-30T14:55:56.431Z,4.27
2018-12-30T14:58:25.266Z,3.93
2018-12-30T15:00:54.256Z,4.30
2018-12-30T15:03:23.220Z,3.93
2018-12-30T15:05:52.327Z,3.73
2018-12-30T15:08:21.219Z,4.07
2018-12-30T15:10:50.171Z,4.00
2018-12-30T15:13:18.993Z,4.27
2018-12-30T15:15:47.970Z,3.97
2018-12-30T15:18:17.196Z,4.00
2018-12-30T15:20:46.144Z,3.63
2018-12-30T15:23:15.245Z,3.70
2018-12-30T15:25:44.455Z,4.00
2018-12-30T15:28:13.413Z,3.47
2018-12-30T15:30:42.688Z,3.93
2018-12-30T15:33:12.532Z,3.40
2018-12-30T15:35:41.325Z,3.70
2018-12-30T15:38:10.184Z,3.43
2018-12-30T15:40:39.085Z,3.50
2018-12-30T15:43:07.960Z,3.50
2018-12-30T15:45:36.782Z,3.60
2018-12-30T15:48:06.172Z,3.30
2018-12-30T15:50:37.332Z,3.60
2018-12-30T15:53:06.098Z,3.80
2018-12-30T15:55:35.022Z,3.70
2018-12-30T15:58:04.070Z,3.53
2018-12-30T16:00:32.845Z,3.60
2018-12-30T16:03:01.704Z,3.63
2018-12-30T16:05:30.637Z,3.50
2018-12-30T16:07:59.594Z,3.03
2018-12-30T16:10:28.399Z,3.40
2018-12-30T16:12:57.356Z,3.23
2018-12-30T16:15:26.303Z,3.43
2018-12-30T16:17:56.045Z,3.47
2018-12-30T16:20:24.986Z,3.63
2018-12-30T16:22:53.977Z,3.10
2018-12-30T16:25:27.083Z,3.50
2018-12-30T16:27:53.390Z,3.20
2018-12-30T16:30:22.335Z,3.20
2018-12-30T16:32:51.213Z,4.00
2018-12-30T16:35:20.186Z,3.27
2018-12-30T16:37:49.562Z,3.60
2018-12-30T16:40:18.469Z,3.33
2018-12-30T16:42:47.387Z,3.10
2018-12-30T16:45:16.324Z,3.17
2018-12-30T16:47:45.296Z,3.10
2018-12-30T16:50:14.199Z,3.63
2018-12-30T16:52:43.177Z,3.30
2018-12-30T16:55:13.250Z,3.60
2018-12-30T16:57:42.226Z,3.60
2018-12-30T17:00:13.958Z,3.20
2018-12-30T17:02:42.858Z,3.17
2018-12-30T17:05:11.733Z,3.23
2018-12-30T17:07:41.064Z,3.30
2018-12-30T17:10:11.745Z,3.27
2018-12-30T17:12:40.795Z,3.40
2018-12-30T17:15:09.862Z,3.40
2018-12-30T17:17:38.867Z,3.20
2018-12-30T17:20:07.973Z,2.93
2018-12-30T17:22:37.891Z,3.07
2018-12-30T17:25:08.036Z,3.10
2018-12-30T17:27:37.134Z,3.43
2018-12-30T17:30:09.470Z,3.10
2018-12-30T17:32:38.485Z,3.10
2018-12-30T17:35:07.721Z,3.10
2018-12-30T17:37:36.734Z,3.30
2018-12-30T17:40:06.334Z,3.30
2018-12-30T17:42:35.420Z,2.90
2018-12-30T17:45:04.648Z,2.83
2018-12-30T17:47:33.585Z,2.90
2018-12-30T17:50:02.665Z,2.97
2018-12-30T17:52:33.125Z,3.20
2018-12-30T17:55:02.114Z,3.13
2018-12-30T17:57:31.077Z,3.10
2018-12-30T18:00:00.242Z,3.00
2018-12-30T18:02:29.191Z,3.33
2018-12-30T18:04:58.274Z,2.80
2018-12-30T18:07:28.132Z,2.90
2018-12-30T18:09:58.159Z,2.80
2018-12-30T18:12:27.140Z,3.00
2018-12-30T18:14:56.190Z,3.30
2018-12-30T18:17:25.133Z,3.13
2018-12-30T18:19:54.163Z,2.90
2018-12-30T18:22:24.438Z,2.80
2018-12-30T18:24:54.578Z,3.00
2018-12-30T18:27:23.630Z,3.30
2018-12-30T18:29:52.710Z,2.80
2018-12-30T18:32:21.746Z,3.10
2018-12-30T18:34:51.907Z,2.83
2018-12-30T18:37:21.232Z,2.90
2018-12-30T18:39:51.117Z,2.60
2018-12-30T18:42:20.449Z,2.77
2018-12-30T18:44:49.407Z,2.73
2018-12-30T18:47:18.460Z,2.73
2018-12-30T18:49:48.064Z,2.90
2018-12-30T18:52:17.161Z,2.30
2018-12-30T18:54:46.194Z,2.87
2018-12-30T18:57:16.582Z,2.80
2018-12-30T18:59:46.196Z,2.70
2018-12-30T19:02:15.410Z,2.23
2018-12-30T19:04:44.487Z,2.50
2018-12-30T19:07:13.512Z,2.70
2018-12-30T19:09:43.625Z,2.60
2018-12-30T19:12:15.076Z,2.83
2018-12-30T19:14:44.146Z,2.67
2018-12-30T19:17:13.422Z,2.90
2018-12-30T19:19:44.571Z,2.70
2018-12-30T19:22:16.262Z,2.97
2018-12-30T19:24:46.069Z,2.80
2018-12-30T19:27:17.753Z,2.90
2018-12-30T19:29:47.719Z,2.50
2018-12-30T19:32:19.254Z,2.60
2018-12-30T19:34:48.276Z,2.63
2018-12-30T19:37:17.392Z,2.60
2018-12-30T19:39:47.067Z,2.57
2018-12-30T19:42:16.168Z,2.83
2018-12-30T19:44:47.495Z,2.67
2018-12-30T19:47:16.913Z,2.70
2018-12-30T19:49:47.122Z,2.60
2018-12-30T19:52:16.300Z,3.00
2018-12-30T19:54:45.676Z,2.80
2018-12-30T19:57:14.783Z,2.80
2018-12-30T19:59:44.201Z,3.20
2018-12-30T20:02:13.320Z,3.07
2018-12-30T20:04:42.453Z,2.87
2018-12-30T20:07:11.559Z,3.20
2018-12-30T20:09:42.940Z,3.10
2018-12-30T20:12:12.056Z,3.20
2018-12-30T20:14:41.412Z,3.40
2018-12-30T20:17:11.305Z,7.07
2018-12-30T20:19:43.752Z,6.30
2018-12-30T20:22:12.949Z,5.83
2018-12-30T20:24:42.942Z,6.20
2018-12-30T20:27:16.793Z,4.87
2018-12-30T20:29:45.060Z,6.47
2018-12-30T20:32:17.293Z,5.33
2018-12-30T20:34:46.471Z,5.10
2018-12-30T20:37:15.522Z,5.03
2018-12-30T20:39:44.625Z,5.20
2018-12-30T20:42:14.723Z,4.60
2018-12-30T20:44:45.182Z,5.10
2018-12-30T20:47:15.132Z,4.40
2018-12-30T20:49:45.103Z,4.30
2018-12-30T20:52:16.525Z,4.63
2018-12-30T20:54:45.640Z,4.67
2018-12-30T20:57:14.954Z,5.20
2018-12-30T20:59:45.374Z,5.33
2018-12-30T21:02:14.558Z,5.10
2018-12-30T21:04:43.566Z,4.87
2018-12-30T21:07:19.161Z,5.97
2018-12-30T21:09:48.900Z,5.90
2018-12-30T21:12:20.095Z,5.90
2018-12-30T21:14:49.245Z,5.27
2018-12-30T21:17:18.381Z,6.00
2018-12-30T21:19:48.008Z,5.20
2018-12-30T21:22:17.121Z,5.20
2018-12-30T21:24:46.985Z,5.27
2018-12-30T21:27:17.701Z,4.93
2018-12-30T21:29:46.869Z,4.83
2018-12-30T21:32:16.324Z,4.63
2018-12-30T21:34:45.681Z,4.80
2018-12-30T21:37:16.710Z,4.60
2018-12-30T21:39:45.857Z,4.37
2018-12-30T21:42:15.030Z,4.80
2018-12-30T21:44:43.993Z,4.37
2018-12-30T21:47:13.461Z,4.57
2018-12-30T21:49:43.362Z,4.50
2018-12-30T21:52:12.709Z,4.33
2018-12-30T21:54:42.081Z,5.00
2018-12-30T21:57:11.188Z,4.87
2018-12-30T21:59:44.494Z,4.80
2018-12-30T22:02:13.684Z,4.70
2018-12-30T22:04:43.693Z,4.97
2018-12-30T22:07:13.129Z,4.50
2018-12-30T22:09:44.101Z,4.60
2018-12-30T22:12:13.214Z,4.90
2018-12-30T22:14:42.559Z,5.00
2018-12-30T22:17:11.765Z,4.30
2018-12-30T22:19:40.883Z,4.37
2018-12-30T22:22:10.217Z,4.30
2018-12-30T22:24:39.669Z,4.33
2018-12-30T22:27:08.727Z,4.20
2018-12-30T22:29:38.097Z,4.20
2018-12-30T22:32:08.960Z,4.53
2018-12-30T22:34:38.084Z,4.23
2018-12-30T22:37:07.845Z,4.27
2018-12-30T22:39:36.977Z,3.77
2018-12-30T22:42:06.430Z,4.33
2018-12-30T22:44:35.801Z,4.50
2018-12-30T22:47:05.329Z,7.77
2018-12-30T22:49:34.683Z,4.83
2018-12-30T22:52:04.561Z,5.43
2018-12-30T22:54:34.229Z,5.30
2018-12-30T22:57:04.875Z,4.50
2018-12-30T22:59:34.053Z,4.60
2018-12-30T23:02:03.189Z,5.90
2018-12-30T23:04:32.259Z,6.33
2018-12-30T23:07:01.277Z,5.00
2018-12-30T23:09:30.842Z,4.50
2018-12-30T23:12:01.671Z,4.90
2018-12-30T23:14:30.989Z,4.60
2018-12-30T23:17:00.093Z,4.70
2018-12-30T23:19:33.617Z,5.07
2018-12-30T23:22:02.599Z,4.10
2018-12-30T23:24:33.673Z,4.67
2018-12-30T23:27:03.421Z,4.60
2018-12-30T23:29:32.320Z,5.03
2018-12-30T23:32:01.381Z,4.57
2018-12-30T23:34:30.299Z,4.30
2018-12-30T23:36:59.263Z,4.03
2018-12-30T23:39:28.157Z,4.30
2018-12-30T23:41:57.282Z,4.00
2018-12-30T23:44:26.226Z,4.07
2018-12-30T23:46:55.204Z,5.00
2018-12-30T23:49:24.090Z,3.80
2018-12-30T23:51:52.947Z,3.93
2018-12-30T23:54:21.881Z,3.93
2018-12-30T23:56:50.672Z,3.80
2018-12-30T23:59:19.653Z,3.77
